createdAt,value
2023-03-12T00:00:01.583Z,5
2023-03-12T00:05:02.077Z,4
2023-03-12T00:10:01.490Z,5
2023-03-12T00:15:01.873Z,5
2023-03-12T00:20:01.345Z,5
2023-03-12T00:25:01.719Z,7
2023-03-12T00:30:02.088Z,5
2023-03-12T00:35:01.464Z,4
2023-03-12T00:40:01.887Z,7
2023-03-12T00:45:02.265Z,5
2023-03-12T00:50:02.047Z,5
2023-03-12T00:55:01.626Z,5
2023-03-12T01:00:02.115Z,7
2023-03-12T01:05:01.469Z,7
2023-03-12T01:10:01.885Z,7
2023-03-12T01:15:02.692Z,4
2023-03-12T01:20:02.313Z,5
2023-03-12T01:25:01.801Z,5
2023-03-12T01:30:02.310Z,7
2023-03-12T01:35:01.678Z,5
2023-03-12T01:40:02.524Z,5
2023-03-12T01:45:02.015Z,8
2023-03-12T01:50:01.436Z,7
2023-03-12T01:55:01.800Z,7
2023-03-12T02:00:02.375Z,7
2023-03-12T02:05:02.179Z,5
2023-03-12T02:10:01.595Z,7
2023-03-12T02:15:01.954Z,7
2023-03-12T02:20:01.402Z,4
2023-03-12T02:25:01.775Z,7
2023-03-12T02:30:02.573Z,7
2023-03-12T02:35:02.077Z,7
2023-03-12T02:40:01.485Z,4
2023-03-12T02:45:01.871Z,5
2023-03-12T02:50:02.234Z,7
2023-03-12T02:55:01.583Z,4
2023-03-12T03:00:01.986Z,4
2023-03-12T03:05:01.338Z,4
2023-03-12T03:10:01.740Z,7
2023-03-12T03:15:02.103Z,7
2023-03-12T03:20:01.560Z,7
2023-03-12T03:25:01.958Z,7
2023-03-12T03:30:01.748Z,4
2023-03-12T03:35:02.121Z,5
2023-03-12T03:40:01.653Z,5
2023-03-12T03:45:02.043Z,5
2023-03-12T03:50:01.536Z,3
2023-03-12T03:55:02.336Z,5
2023-03-12T04:00:03.821Z,4
2023-03-12T04:05:01.810Z,4
2023-03-12T04:10:02.208Z,4
2023-03-12T04:15:01.749Z,4
2023-03-12T04:20:02.198Z,3
2023-03-12T04:25:01.992Z,3
2023-03-12T04:30:01.390Z,3
2023-03-12T04:35:01.755Z,3
2023-03-12T04:40:02.176Z,3
2023-03-12T04:45:01.539Z,4
2023-03-12T04:50:01.904Z,3
2023-03-12T04:55:02.690Z,3
2023-03-12T05:00:02.208Z,3
2023-03-12T05:05:01.566Z,3
2023-03-12T05:10:01.967Z,3
2023-03-12T05:15:01.504Z,3
2023-03-12T05:20:01.912Z,3
2023-03-12T05:25:02.286Z,4
2023-03-12T05:30:01.945Z,4
2023-03-12T05:35:02.345Z,4
2023-03-12T05:40:01.737Z,3
2023-03-12T05:45:02.236Z,3
2023-03-12T05:50:01.520Z,3
2023-03-12T05:55:02.018Z,3
2023-03-12T06:00:01.477Z,3
2023-03-12T06:05:01.941Z,4
2023-03-12T06:10:01.352Z,4
2023-03-12T06:15:01.727Z,4
2023-03-12T06:20:02.274Z,3
2023-03-12T06:25:01.623Z,4
2023-03-12T06:30:02.438Z,5
2023-03-12T06:35:01.921Z,4
2023-03-12T06:40:01.327Z,5
2023-03-12T06:45:01.697Z,4
2023-03-12T06:50:02.072Z,5
2023-03-12T06:55:01.538Z,6
2023-03-12T07:00:02.046Z,5
2023-03-12T07:05:01.626Z,4
2023-03-12T07:10:02.243Z,6
2023-03-12T07:15:01.674Z,5
2023-03-12T07:20:02.538Z,3
2023-03-12T07:25:02.566Z,4
2023-03-12T07:30:02.391Z,4
2023-03-12T07:35:01.764Z,6
2023-03-12T07:40:02.629Z,6
2023-03-12T07:45:02.122Z,4
2023-03-12T07:50:01.765Z,7
2023-03-12T07:55:02.386Z,6
2023-03-12T08:00:02.052Z,5
2023-03-12T08:05:01.497Z,7
2023-03-12T08:10:02.036Z,7
2023-03-12T08:15:01.618Z,5
2023-03-12T08:20:02.185Z,7
2023-03-12T08:25:01.982Z,7
2023-03-12T08:30:01.351Z,8
2023-03-12T08:35:01.762Z,8
2023-03-12T08:40:02.158Z,8
2023-03-12T08:45:01.557Z,8
2023-03-12T08:50:02.044Z,7
2023-03-12T08:55:01.531Z,7
2023-03-12T09:00:02.037Z,7
2023-03-12T09:05:01.404Z,8
2023-03-12T09:10:01.816Z,6
2023-03-12T09:15:04.168Z,7
2023-03-12T09:20:02.158Z,6
2023-03-12T09:25:01.512Z,7
2023-03-12T09:30:01.987Z,7
2023-03-12T09:35:01.529Z,5
2023-03-12T09:40:01.954Z,6
2023-03-12T09:45:01.484Z,7
2023-03-12T09:50:01.897Z,4
2023-03-12T09:55:01.808Z,6
2023-03-12T10:00:02.191Z,4
2023-03-12T10:05:01.602Z,4
2023-03-12T10:10:02.200Z,3
2023-03-12T10:15:01.893Z,4
2023-03-12T10:20:01.818Z,4
2023-03-12T10:25:02.321Z,6
2023-03-12T10:30:01.701Z,3
2023-03-12T10:35:02.196Z,3
2023-03-12T10:40:02.048Z,3
2023-03-12T10:45:01.442Z,2
2023-03-12T10:50:02.258Z,3
2023-03-12T10:55:01.721Z,4
2023-03-12T11:00:02.684Z,3
2023-03-12T11:05:02.193Z,3
2023-03-12T11:10:01.760Z,3
2023-03-12T11:15:02.570Z,2
2023-03-12T11:20:02.094Z,2
2023-03-12T11:25:01.491Z,3
2023-03-12T11:30:02.043Z,3
2023-03-12T11:35:01.545Z,2
2023-03-12T11:40:02.079Z,3
2023-03-12T11:45:01.462Z,3
2023-03-12T11:50:01.978Z,3
2023-03-12T11:55:01.518Z,3
2023-03-12T12:00:01.947Z,3
2023-03-12T12:05:01.351Z,3
2023-03-12T12:10:01.877Z,3
2023-03-12T12:15:02.279Z,2
2023-03-12T12:20:01.738Z,2
2023-03-12T12:25:02.114Z,2
2023-03-12T12:30:01.565Z,3
2023-03-12T12:35:02.347Z,3
2023-03-12T12:40:01.780Z,3
2023-03-12T12:45:02.634Z,4
2023-03-12T12:50:02.423Z,3
2023-03-12T12:55:01.905Z,3
2023-03-12T13:00:02.310Z,2
2023-03-12T13:05:02.099Z,3
2023-03-12T13:10:01.935Z,4
2023-03-12T13:15:02.320Z,3
2023-03-12T13:20:02.397Z,3
2023-03-12T13:25:01.839Z,3
2023-03-12T13:30:02.211Z,1
2023-03-12T13:35:01.802Z,3
2023-03-12T13:40:02.729Z,2
2023-03-12T13:45:02.113Z,2
2023-03-12T13:50:01.939Z,3
2023-03-12T13:55:02.314Z,3
2023-03-12T14:00:01.855Z,2
2023-03-12T14:05:02.390Z,3
2023-03-12T14:10:01.866Z,2
2023-03-12T14:15:02.680Z,3
2023-03-12T14:20:02.346Z,2
2023-03-12T14:25:01.752Z,3
2023-03-12T14:30:02.547Z,2
2023-03-12T14:35:01.918Z,2
2023-03-12T14:40:01.755Z,1
2023-03-12T14:45:02.149Z,2
2023-03-12T14:50:01.527Z,2
2023-03-12T14:55:02.065Z,2
2023-03-12T15:00:01.461Z,1
2023-03-12T15:05:01.997Z,1
2023-03-12T15:10:01.596Z,2
2023-03-12T15:15:02.001Z,1
2023-03-12T15:20:01.459Z,1
2023-03-12T15:25:02.255Z,3
2023-03-12T15:30:02.062Z,2
2023-03-12T15:35:01.614Z,2
2023-03-12T15:40:02.346Z,2
2023-03-12T15:45:01.724Z,1
2023-03-12T15:50:02.125Z,2
2023-03-12T15:55:01.645Z,2
2023-03-12T16:00:02.055Z,1
2023-03-12T16:05:01.647Z,2
2023-03-12T16:10:02.479Z,3
2023-03-12T16:15:02.002Z,2
2023-03-12T16:20:01.461Z,1
2023-03-12T16:25:02.248Z,2
2023-03-12T16:30:02.147Z,2
2023-03-12T16:35:01.521Z,2
2023-03-12T16:40:01.952Z,2
2023-03-12T16:45:01.472Z,2
2023-03-12T16:50:02.313Z,3
2023-03-12T16:55:01.825Z,2
2023-03-12T17:00:02.367Z,2
2023-03-12T17:05:02.066Z,2
2023-03-12T17:10:01.505Z,2
2023-03-12T17:15:02.314Z,3
2023-03-12T17:20:02.148Z,1
2023-03-12T17:25:01.939Z,3
2023-03-12T17:30:01.445Z,2
2023-03-12T17:35:02.245Z,3
2023-03-12T17:40:02.085Z,3
2023-03-12T17:45:01.480Z,2
2023-03-12T17:50:01.839Z,2
2023-03-12T17:55:02.385Z,3
2023-03-12T18:00:01.955Z,1
2023-03-12T18:05:01.586Z,2
2023-03-12T18:10:02.069Z,2
2023-03-12T18:15:01.610Z,2
2023-03-12T18:20:02.486Z,2
2023-03-12T18:25:01.859Z,2
2023-03-12T18:30:02.250Z,1
2023-03-12T18:35:02.069Z,1
2023-03-12T18:40:01.601Z,2
2023-03-12T18:45:01.984Z,2
2023-03-12T18:50:01.398Z,2
2023-03-12T18:55:01.830Z,1
2023-03-12T19:00:02.546Z,1
2023-03-12T19:05:02.383Z,1
2023-03-12T19:10:01.906Z,1
2023-03-12T19:15:01.370Z,1
2023-03-12T19:20:01.789Z,3
2023-03-12T19:25:02.353Z,1
2023-03-12T19:30:01.871Z,1
2023-03-12T19:35:02.393Z,1
2023-03-12T19:40:01.929Z,1
2023-03-12T19:45:01.376Z,1
2023-03-12T19:50:01.744Z,3
2023-03-12T19:55:05.169Z,0
2023-03-12T20:00:02.075Z,2
2023-03-12T20:05:01.608Z,2
2023-03-12T20:10:02.555Z,2
2023-03-12T20:15:01.924Z,1
2023-03-12T20:20:01.498Z,2
2023-03-12T20:25:02.287Z,3
2023-03-12T20:30:01.848Z,1
2023-03-12T20:35:02.664Z,2
2023-03-12T20:40:02.075Z,1
2023-03-12T20:45:01.473Z,1
2023-03-12T20:50:01.861Z,1
2023-03-12T20:55:01.365Z,1
2023-03-12T21:00:02.225Z,2
2023-03-12T21:05:01.626Z,1
2023-03-12T21:10:02.034Z,1
2023-03-12T21:15:01.445Z,1
2023-03-12T21:20:02.381Z,1
2023-03-12T21:25:01.769Z,2
2023-03-12T21:30:02.196Z,1
2023-03-12T21:35:01.715Z,2
2023-03-12T21:40:02.136Z,1
2023-03-12T21:45:01.539Z,2
2023-03-12T21:50:02.314Z,2
2023-03-12T21:55:01.676Z,1
2023-03-12T22:00:02.266Z,1
2023-03-12T22:05:02.430Z,2
2023-03-12T22:10:02.255Z,1
2023-03-12T22:15:01.773Z,1
2023-03-12T22:20:02.311Z,2
2023-03-12T22:25:01.818Z,2
2023-03-12T22:30:02.213Z,1
2023-03-12T22:35:01.720Z,2
2023-03-12T22:40:02.576Z,1
2023-03-12T22:45:02.372Z,3
2023-03-12T22:50:01.722Z,2
2023-03-12T22:55:02.095Z,1
2023-03-12T23:00:01.701Z,1
2023-03-12T23:05:02.540Z,2
2023-03-12T23:10:02.118Z,2
2023-03-12T23:15:01.552Z,2
2023-03-12T23:20:02.097Z,2
2023-03-12T23:25:01.456Z,2
2023-03-12T23:30:01.838Z,2
2023-03-12T23:35:02.344Z,2
2023-03-12T23:40:01.862Z,2
2023-03-12T23:45:02.261Z,3
2023-03-12T23:50:01.635Z,2
2023-03-12T23:55:02.021Z,2
